Time;durP1;ratioP1;P1;durP2;ratioP2;P2;SDS_P1;SDS_P2;PMS_P1;PMS_P2;Temp;Humidity;BMP_temperature;BMP_pressure;BME280_temperature;BME280_humidity;BME280_pressure;Samples;Min_cycle;Max_cycle;Signal;HPM_P1;HPM_P2
2022/02/27 00:02:12;;;;;;;;;;;;;;;;;;5095913;28;20325;-77
2022/02/27 00:04:37;;;;;;;;;;;;;;;;;;5094651;28;19916;-77
2022/02/27 00:07:03;;;;;;;;;;;;;;;;;;5094582;28;19977;-77
2022/02/27 00:09:29;;;;;;;;;;;;;;;;;;5095672;28;19912;-77
2022/02/27 00:11:55;;;;;;;;;;;;;;;;;;5095773;28;20023;-77
2022/02/27 00:14:20;;;;;;;;;;;;;;;;;;5094603;28;19916;-77
2022/02/27 00:16:45;;;;;;;;;;;;;;;;;;5095732;28;19939;-77
2022/02/27 00:19:11;;;;;;;;;;;;;;;;;;5095437;28;19920;-77
2022/02/27 00:21:36;;;;;;;;;;;;;;;;;;5094516;28;20381;-77
2022/02/27 00:24:01;;;;;;;;;;;;;;;;;;5094319;28;19916;-77
2022/02/27 00:26:27;;;;;;;;;;;;;;;;;;5095205;28;19916;-77
2022/02/27 00:28:52;;;;;;;;;;;;;;;;;;5095094;28;19923;-77
2022/02/27 00:31:17;;;;;;;;;;;;;;;;;;5093979;28;19916;-77
2022/02/27 00:33:43;;;;;;;;;;;;;;;;;;5095478;28;19949;-77
2022/02/27 00:36:08;;;;;;;;;;;;;;;;;;5093870;28;20362;-77
2022/02/27 00:38:34;;;;;;;;;;;;;;;;;;5094261;28;19920;-77
2022/02/27 00:40:59;;;;;;;;;;;;;;;;;;5093982;28;19924;-77
2022/02/27 00:43:27;;;;;;;;;;;;;;;;;;5094857;28;20435;-77
2022/02/27 00:45:52;;;;;;;;;;;;;;;;;;5092639;28;19916;-77
2022/02/27 00:48:17;;;;;;;;;;;;;;;;;;5094002;28;20258;-77
2022/02/27 00:50:43;;;;;;;;;;;;;;;;;;5094971;28;20269;-78
2022/02/27 00:53:08;;;;;;;;;;;;;;;;;;5096847;28;19920;-77
2022/02/27 00:55:34;;;;;;;;;;;;;;;;;;5094301;28;20336;-78
2022/02/27 00:57:59;;;;;;;;;;;;;;;;;;5094242;28;19927;-78
2022/02/27 01:00:25;;;;;;;;;;;;;;;;;;5095240;28;19920;-77
2022/02/27 01:02:50;;;;;;;;;;;;;;;;;;5095758;28;20255;-77
2022/02/27 01:05:16;;;;;;;;;;;;;;;;;;5095558;28;19916;-77
2022/02/27 01:07:41;;;;;;;;;;;;;;;;;;5095046;28;19920;-77
2022/02/27 01:10:07;;;;;;;;;;;;;;;;;;5094791;28;19955;-78
2022/02/27 01:12:32;;;;;;;;;;;;;;;;;;5094986;28;20022;-78
2022/02/27 01:14:57;;;;;;;;;;;;;;;;;;5095708;28;19916;-78
2022/02/27 01:17:23;;;;;;;;;;;;;;;;;;5092122;28;19920;-77
2022/02/27 01:19:49;;;;;;;;;;;;;;;;;;5094158;28;19962;-77
2022/02/27 01:22:14;;;;;;;;;;;;;;;;;;5095050;28;20007;-77
2022/02/27 01:24:40;;;;;;;;;;;;;;;;;;5094328;28;19955;-78
2022/02/27 01:27:06;;;;;;;;;;;;;;;;;;5094004;28;19915;-77
2022/02/27 01:29:32;;;;;;;;;;;;;;;;;;5095305;28;20381;-78
2022/02/27 01:31:57;;;;;;;;;;;;;;;;;;5094588;28;19978;-77
2022/02/27 01:34:23;;;;;;;;;;;;;;;;;;5093803;28;19951;-78
2022/02/27 01:36:48;;;;;;;;;;;;;;;;;;5093647;28;19916;-77
2022/02/27 01:39:14;;;;;;;;;;;;;;;;;;5094486;28;19923;-77
2022/02/27 01:41:39;;;;;;;;;;;;;;;;;;5093524;28;20344;-78
2022/02/27 01:44:07;;;;;;;;;;;;;;;;;;5094247;28;19920;-77
2022/02/27 01:46:34;;;;;;;;;;;;;;;;;;5092201;28;20065;-77
2022/02/27 01:49:00;;;;;;;;;;;;;;;;;;5094270;28;20392;-77
2022/02/27 01:51:25;;;;;;;;;;;;;;;;;;5094057;28;19916;-77
2022/02/27 01:53:51;;;;;;;;;;;;;;;;;;5092752;28;19935;-77
2022/02/27 01:56:17;;;;;;;;;;;;;;;;;;5093700;28;20460;-77
2022/02/27 01:58:43;;;;;;;;;;;;;;;;;;5093875;28;19999;-77
2022/02/27 02:01:09;;;;;;;;;;;;;;;;;;5092493;28;20006;-77
2022/02/27 02:03:34;;;;;;;;;;;;;;;;;;5092333;28;19916;-77
2022/02/27 02:06:02;;;;;;;;;;;;;;;;;;5093075;28;19959;-77
2022/02/27 02:08:27;;;;;;;;;;;;;;;;;;5094207;28;20000;-77
2022/02/27 02:10:53;;;;;;;;;;;;;;;;;;5092715;28;19963;-77
2022/02/27 02:13:18;;;;;;;;;;;;;;;;;;5092972;28;19922;-77
2022/02/27 02:15:54;;;;;;;;;;;;;;;;;;5092233;28;19923;-77
2022/02/27 02:18:19;;;;;;;;;;;;;;;;;;5092658;28;20427;-77
2022/02/27 02:20:45;;;;;;;;;;;;;;;;;;5093684;28;19920;-77
2022/02/27 02:23:10;;;;;;;;;;;;;;;;;;5092689;28;19966;-77
2022/02/27 02:25:35;;;;;;;;;;;;;;;;;;5093374;28;19916;-77
2022/02/27 02:28:01;;;;;;;;;;;;;;;;;;5092216;28;20381;-77
2022/02/27 02:30:26;;;;;;;;;;;;;;;;;;5093491;28;19958;-77
2022/02/27 02:32:54;;;;;;;;;;;;;;;;;;5092506;28;19986;-77
2022/02/27 02:35:20;;;;;;;;;;;;;;;;;;5092743;28;19916;-77
2022/02/27 02:37:46;;;;;;;;;;;;;;;;;;5092309;28;20246;-77
2022/02/27 02:40:12;;;;;;;;;;;;;;;;;;5092267;28;20377;-78
2022/02/27 02:42:38;;;;;;;;;;;;;;;;;;5091678;28;19969;-77
2022/02/27 02:45:04;;;;;;;;;;;;;;;;;;5092508;28;20266;-76
2022/02/27 02:47:29;;;;;;;;;;;;;;;;;;5092264;28;19923;-77
2022/02/27 02:49:55;;;;;;;;;;;;;;;;;;5090896;28;20346;-77
2022/02/27 02:52:20;;;;;;;;;;;;;;;;;;5092021;28;19920;-77
2022/02/27 02:54:46;;;;;;;;;;;;;;;;;;5092352;28;19916;-77
2022/02/27 02:57:11;;;;;;;;;;;;;;;;;;5093475;28;19931;-77
2022/02/27 02:59:36;;;;;;;;;;;;;;;;;;5093229;28;20369;-77
2022/02/27 03:02:02;;;;;;;;;;;;;;;;;;5093160;28;19920;-77
2022/02/27 03:04:28;;;;;;;;;;;;;;;;;;5092215;28;20374;-77
2022/02/27 03:06:53;;;;;;;;;;;;;;;;;;5092861;28;20302;-77
2022/02/27 03:09:19;;;;;;;;;;;;;;;;;;5093430;28;19962;-77
2022/02/27 03:11:44;;;;;;;;;;;;;;;;;;5091606;28;19943;-77
2022/02/27 03:14:09;;;;;;;;;;;;;;;;;;5092840;28;20451;-77
2022/02/27 03:16:35;;;;;;;;;;;;;;;;;;5078061;28;19916;-77
2022/02/27 03:19:00;;;;;;;;;;;;;;;;;;5095039;28;19916;-77
2022/02/27 03:21:25;;;;;;;;;;;;;;;;;;5104176;28;20348;-78
2022/02/27 03:23:52;;;;;;;;;;;;;;;;;;5084627;28;20305;-77
2022/02/27 03:26:18;;;;;;;;;;;;;;;;;;5077243;28;20282;-77
2022/02/27 03:28:43;;;;;;;;;;;;;;;;;;5092879;28;19916;-78
2022/02/27 03:31:09;;;;;;;;;;;;;;;;;;5080127;28;20316;-78
2022/02/27 03:33:34;;;;;;;;;;;;;;;;;;5086834;28;19923;-78
2022/02/27 03:35:59;;;;;;;;;;;;;;;;;;5098575;28;20022;-78
2022/02/27 03:38:24;;;;;;;;;;;;;;;;;;5098061;28;19962;-78
2022/02/27 03:40:50;;;;;;;;;;;;;;;;;;5098978;28;20388;-78
2022/02/27 03:43:15;;;;;;;;;;;;;;;;;;5098018;28;20433;-78
2022/02/27 03:45:41;;;;;;;;;;;;;;;;;;5098157;28;19916;-78
2022/02/27 03:48:06;;;;;;;;;;;;;;;;;;5079150;28;20373;-78
2022/02/27 03:50:31;;;;;;;;;;;;;;;;;;5082863;28;19927;-78
2022/02/27 03:52:57;;;;;;;;;;;;;;;;;;5098256;28;19927;-78
2022/02/27 03:55:22;;;;;;;;;;;;;;;;;;5099316;28;19916;-78
2022/02/27 03:57:47;;;;;;;;;;;;;;;;;;5084254;28;19916;-78
2022/02/27 04:00:15;;;;;;;;;;;;;;;;;;5078037;28;19926;-78
2022/02/27 04:02:46;;;;;;;;;;;;;;;;;;5078767;28;20016;-78
2022/02/27 04:05:13;;;;;;;;;;;;;;;;;;5077747;28;19924;-77
2022/02/27 04:07:38;;;;;;;;;;;;;;;;;;5077865;28;19920;-78
2022/02/27 04:10:04;;;;;;;;;;;;;;;;;;5078450;28;19970;-78
2022/02/27 04:12:29;;;;;;;;;;;;;;;;;;5076267;28;19923;-77
2022/02/27 04:14:54;;;;;;;;;;;;;;;;;;5077304;28;19916;-78
2022/02/27 04:17:20;;;;;;;;;;;;;;;;;;5076483;28;20007;-77
2022/02/27 04:19:45;;;;;;;;;;;;;;;;;;5076364;28;20362;-77
2022/02/27 04:22:10;;;;;;;;;;;;;;;;;;5074637;28;20335;-77
2022/02/27 04:24:39;;;;;;;;;;;;;;;;;;5076614;28;19923;-77
2022/02/27 04:27:04;;;;;;;;;;;;;;;;;;5092659;28;19924;-77
2022/02/27 04:29:29;;;;;;;;;;;;;;;;;;5095373;28;19930;-77
2022/02/27 04:31:55;;;;;;;;;;;;;;;;;;5095860;28;19916;-77
2022/02/27 04:34:20;;;;;;;;;;;;;;;;;;5095281;28;20008;-77
2022/02/27 04:36:45;;;;;;;;;;;;;;;;;;5094116;28;19916;-77
2022/02/27 04:39:11;;;;;;;;;;;;;;;;;;5095303;28;19916;-77
2022/02/27 04:41:36;;;;;;;;;;;;;;;;;;5094737;28;19916;-77
2022/02/27 04:44:02;;;;;;;;;;;;;;;;;;5094193;28;19927;-77
2022/02/27 04:46:27;;;;;;;;;;;;;;;;;;5094767;28;19916;-77
2022/02/27 04:48:53;;;;;;;;;;;;;;;;;;5095184;28;19916;-77
2022/02/27 04:51:18;;;;;;;;;;;;;;;;;;5095378;28;20007;-77
2022/02/27 04:53:45;;;;;;;;;;;;;;;;;;5094878;28;19949;-77
2022/02/27 04:56:11;;;;;;;;;;;;;;;;;;5094967;28;19915;-77
2022/02/27 04:58:36;;;;;;;;;;;;;;;;;;5093388;28;20254;-77
2022/02/27 05:01:02;;;;;;;;;;;;;;;;;;5094896;28;19927;-77
2022/02/27 05:03:27;;;;;;;;;;;;;;;;;;5095036;28;19958;-77
2022/02/27 05:05:52;;;;;;;;;;;;;;;;;;5093642;28;19916;-77
2022/02/27 05:08:17;;;;;;;;;;;;;;;;;;5095109;28;19916;-77
2022/02/27 05:10:43;;;;;;;;;;;;;;;;;;5095160;28;20109;-77
2022/02/27 05:13:08;;;;;;;;;;;;;;;;;;5093949;28;19923;-77
2022/02/27 05:15:34;;;;;;;;;;;;;;;;;;5094875;28;19916;-77
2022/02/27 05:17:59;;;;;;;;;;;;;;;;;;5095030;28;19927;-77
2022/02/27 05:20:25;;;;;;;;;;;;;;;;;;5094565;28;19943;-77
2022/02/27 05:22:50;;;;;;;;;;;;;;;;;;5094380;28;19923;-77
2022/02/27 05:25:18;;;;;;;;;;;;;;;;;;5093235;28;19916;-77
2022/02/27 05:27:44;;;;;;;;;;;;;;;;;;5094649;28;19976;-78
2022/02/27 05:30:09;;;;;;;;;;;;;;;;;;5095429;28;19920;-78
2022/02/27 05:32:35;;;;;;;;;;;;;;;;;;5095527;28;19916;-78
2022/02/27 05:35:00;;;;;;;;;;;;;;;;;;5094782;28;20418;-77
2022/02/27 05:37:26;;;;;;;;;;;;;;;;;;5093793;28;19916;-77
2022/02/27 05:39:53;;;;;;;;;;;;;;;;;;5094007;28;19912;-77
2022/02/27 05:42:18;;;;;;;;;;;;;;;;;;5094503;28;19916;-78
2022/02/27 05:44:44;;;;;;;;;;;;;;;;;;5092697;28;19923;-77
2022/02/27 05:47:09;;;;;;;;;;;;;;;;;;5094442;28;19916;-77
2022/02/27 05:49:34;;;;;;;;;;;;;;;;;;5093604;28;19955;-77
2022/02/27 05:51:59;;;;;;;;;;;;;;;;;;5092330;28;19916;-77
2022/02/27 05:54:25;;;;;;;;;;;;;;;;;;5093230;28;19962;-77
2022/02/27 05:56:50;;;;;;;;;;;;;;;;;;5093272;28;19923;-77
2022/02/27 05:59:16;;;;;;;;;;;;;;;;;;5092465;28;19961;-77
2022/02/27 06:01:41;;;;;;;;;;;;;;;;;;5092942;28;19973;-77
2022/02/27 06:04:06;;;;;;;;;;;;;;;;;;5094012;28;20394;-77
2022/02/27 06:06:32;;;;;;;;;;;;;;;;;;5093863;28;20014;-77
2022/02/27 06:08:57;;;;;;;;;;;;;;;;;;5093751;28;19916;-77
2022/02/27 06:11:22;;;;;;;;;;;;;;;;;;5093526;28;19916;-77
2022/02/27 06:13:47;;;;;;;;;;;;;;;;;;5093366;28;20282;-77
2022/02/27 06:16:13;;;;;;;;;;;;;;;;;;5093414;28;19951;-77
2022/02/27 06:18:38;;;;;;;;;;;;;;;;;;5094013;28;19923;-77
2022/02/27 06:21:04;;;;;;;;;;;;;;;;;;5093728;28;19929;-77
2022/02/27 06:23:29;;;;;;;;;;;;;;;;;;5092624;28;19939;-77
2022/02/27 06:25:55;;;;;;;;;;;;;;;;;;5093530;28;20350;-77
2022/02/27 06:28:20;;;;;;;;;;;;;;;;;;5093852;28;19916;-77
2022/02/27 06:30:46;;;;;;;;;;;;;;;;;;5093064;28;19916;-77
2022/02/27 06:33:11;;;;;;;;;;;;;;;;;;5093679;28;19919;-77
2022/02/27 06:35:36;;;;;;;;;;;;;;;;;;5092024;28;19923;-77
2022/02/27 06:38:02;;;;;;;;;;;;;;;;;;5093209;28;19920;-77
2022/02/27 06:40:27;;;;;;;;;;;;;;;;;;5093337;28;20332;-77
2022/02/27 06:42:52;;;;;;;;;;;;;;;;;;5094080;28;19916;-78
2022/02/27 06:45:18;;;;;;;;;;;;;;;;;;5095668;28;20259;-77
2022/02/27 06:47:44;;;;;;;;;;;;;;;;;;5093244;28;19916;-77
2022/02/27 06:50:09;;;;;;;;;;;;;;;;;;5096600;28;20311;-77
2022/02/27 06:52:34;;;;;;;;;;;;;;;;;;5097555;28;20009;-77
2022/02/27 06:55:00;;;;;;;;;;;;;;;;;;5098000;28;20282;-77
2022/02/27 06:57:25;;;;;;;;;;;;;;;;;;5098261;28;19916;-77
2022/02/27 06:59:50;;;;;;;;;;;;;;;;;;5097263;28;20407;-77
2022/02/27 07:02:16;;;;;;;;;;;;;;;;;;5103408;28;19927;-78
2022/02/27 07:04:41;;;;;;;;;;;;;;;;;;5099431;28;19926;-78
2022/02/27 07:07:07;;;;;;;;;;;;;;;;;;5098940;28;20369;-77
2022/02/27 07:09:33;;;;;;;;;;;;;;;;;;5099999;28;19916;-77
2022/02/27 07:11:58;;;;;;;;;;;;;;;;;;5097264;28;19926;-77
2022/02/27 07:14:24;;;;;;;;;;;;;;;;;;5095715;28;19916;-77
2022/02/27 07:16:49;;;;;;;;;;;;;;;;;;5097732;28;19916;-77
2022/02/27 07:19:14;;;;;;;;;;;;;;;;;;5097786;28;19916;-77
2022/02/27 07:21:40;;;;;;;;;;;;;;;;;;5095669;28;19927;-77
2022/02/27 07:24:05;;;;;;;;;;;;;;;;;;5096900;28;19916;-77
2022/02/27 07:26:31;;;;;;;;;;;;;;;;;;5097645;28;19912;-77
2022/02/27 07:28:56;;;;;;;;;;;;;;;;;;5098668;28;20014;-77
2022/02/27 07:31:21;;;;;;;;;;;;;;;;;;5099935;28;19924;-77
2022/02/27 07:33:47;;;;;;;;;;;;;;;;;;5098020;28;19912;-77
2022/02/27 07:36:13;;;;;;;;;;;;;;;;;;5096565;28;20273;-77
2022/02/27 07:38:38;;;;;;;;;;;;;;;;;;5095495;28;20007;-76
2022/02/27 07:41:04;;;;;;;;;;;;;;;;;;5094711;28;19990;-76
2022/02/27 07:43:29;;;;;;;;;;;;;;;;;;5094955;28;20014;-75
2022/02/27 07:45:54;;;;;;;;;;;;;;;;;;5097391;28;19923;-78
2022/02/27 07:48:20;;;;;;;;;;;;;;;;;;5099865;28;19923;-80
2022/02/27 07:50:46;;;;;;;;;;;;;;;;;;5098865;28;19916;-79
2022/02/27 07:53:11;;;;;;;;;;;;;;;;;;5100249;28;20389;-83
2022/02/27 07:55:36;;;;;;;;;;;;;;;;;;5095132;28;19921;-84
2022/02/27 07:58:02;;;;;;;;;;;;;;;;;;5078834;28;20366;-78
2022/02/27 08:00:27;;;;;;;;;;;;;;;;;;5079224;28;19921;-80
2022/02/27 08:02:53;;;;;;;;;;;;;;;;;;5078030;28;19936;-77
2022/02/27 08:05:18;;;;;;;;;;;;;;;;;;5078849;28;19917;-77
2022/02/27 08:07:43;;;;;;;;;;;;;;;;;;5078762;28;19973;-78
2022/02/27 08:10:10;;;;;;;;;;;;;;;;;;5078456;28;19924;-77
2022/02/27 08:12:39;;;;;;;;;;;;;;;;;;5081314;28;20433;-84
2022/02/27 08:15:05;;;;;;;;;;;;;;;;;;5107062;28;20404;-80
2022/02/27 08:17:30;;;;;;;;;;;;;;;;;;5097608;28;19916;-81
2022/02/27 08:19:58;;;;;;;;;;;;;;;;;;5084143;28;19917;-81
2022/02/27 08:22:23;;;;;;;;;;;;;;;;;;5083153;28;19920;-80
2022/02/27 08:24:49;;;;;;;;;;;;;;;;;;5084413;28;19919;-81
2022/02/27 08:27:14;;;;;;;;;;;;;;;;;;5081971;28;20344;-81
2022/02/27 08:29:39;;;;;;;;;;;;;;;;;;5083538;28;19999;-81
2022/02/27 08:32:05;;;;;;;;;;;;;;;;;;5083114;28;20373;-80
2022/02/27 08:34:30;;;;;;;;;;;;;;;;;;5099931;28;19916;-81
2022/02/27 08:36:55;;;;;;;;;;;;;;;;;;5081167;28;20447;-83
2022/02/27 08:39:21;;;;;;;;;;;;;;;;;;5081211;28;19923;-82
2022/02/27 08:41:46;;;;;;;;;;;;;;;;;;5078120;28;20016;-82
2022/02/27 08:44:11;;;;;;;;;;;;;;;;;;5079347;28;19966;-82
2022/02/27 08:46:36;;;;;;;;;;;;;;;;;;5076764;28;20378;-82
2022/02/27 08:49:02;;;;;;;;;;;;;;;;;;5079531;28;19970;-83
2022/02/27 08:51:28;;;;;;;;;;;;;;;;;;5079779;28;19939;-82
2022/02/27 08:53:53;;;;;;;;;;;;;;;;;;5078301;28;19928;-82
2022/02/27 08:56:18;;;;;;;;;;;;;;;;;;5080418;28;19916;-83
2022/02/27 08:58:44;;;;;;;;;;;;;;;;;;5082835;28;19927;-83
2022/02/27 09:01:09;;;;;;;;;;;;;;;;;;5081777;28;19920;-83
2022/02/27 09:03:34;;;;;;;;;;;;;;;;;;5081764;28;20344;-83
2022/02/27 09:06:00;;;;;;;;;;;;;;;;;;5081119;28;20014;-82
2022/02/27 09:08:25;;;;;;;;;;;;;;;;;;5080299;28;19955;-83
2022/02/27 09:10:50;;;;;;;;;;;;;;;;;;5079207;28;19923;-82
2022/02/27 09:13:16;;;;;;;;;;;;;;;;;;5096133;28;19912;-81
2022/02/27 09:15:41;;;;;;;;;;;;;;;;;;5078987;28;20003;-81
2022/02/27 09:18:06;;;;;;;;;;;;;;;;;;5078966;28;19917;-79
2022/02/27 09:20:32;;;;;;;;;;;;;;;;;;5080248;28;19923;-79
2022/02/27 09:22:58;;;;;;;;;;;;;;;;;;5087105;28;19916;-78
2022/02/27 09:25:23;;;;;;;;;;;;;;;;;;5098245;28;19923;-78
2022/02/27 09:27:48;;;;;;;;;;;;;;;;;;5098794;28;19916;-79
2022/02/27 09:30:14;;;;;;;;;;;;;;;;;;5100293;28;19954;-79
2022/02/27 09:32:40;;;;;;;;;;;;;;;;;;5100633;28;19932;-81
2022/02/27 09:35:06;;;;;;;;;;;;;;;;;;5099938;28;19916;-83
2022/02/27 09:37:32;;;;;;;;;;;;;;;;;;5099301;28;19916;-81
2022/02/27 09:39:58;;;;;;;;;;;;;;;;;;5099129;28;19916;-79
2022/02/27 09:42:25;;;;;;;;;;;;;;;;;;5098244;28;19966;-82
2022/02/27 09:44:50;;;;;;;;;;;;;;;;;;5081640;28;19917;-82
2022/02/27 09:47:16;;;;;;;;;;;;;;;;;;5077345;28;20007;-82
2022/02/27 09:49:45;;;;;;;;;;;;;;;;;;5078627;28;19921;-83
2022/02/27 09:52:11;;;;;;;;;;;;;;;;;;5077764;28;19927;-78
2022/02/27 09:54:37;;;;;;;;;;;;;;;;;;5076352;28;20011;-80
2022/02/27 09:57:04;;;;;;;;;;;;;;;;;;5077750;28;21365;-81
2022/02/27 09:59:29;;;;;;;;;;;;;;;;;;5080141;28;20019;-79
2022/02/27 10:02:02;;;;;;;;;;;;;;;;;;5077043;28;19964;-82
2022/02/27 10:04:33;;;;;;;;;;;;;;;;;;5077869;28;20288;-86
2022/02/27 10:06:58;;;;;;;;;;;;;;;;;;5075056;28;19965;-85
2022/02/27 10:09:24;;;;;;;;;;;;;;;;;;5076762;28;19916;-83
2022/02/27 10:11:52;;;;;;;;;;;;;;;;;;5078108;28;19919;-81
2022/02/27 10:14:27;;;;;;;;;;;;;;;;;;5058536;28;19970;-79
2022/02/27 10:17:05;;;;;;;;;;;;;;;;;;5076546;28;19926;-80
2022/02/27 10:19:34;;;;;;;;;;;;;;;;;;5076487;28;19916;-80
2022/02/27 10:21:59;;;;;;;;;;;;;;;;;;5077135;28;19978;-81
2022/02/27 10:24:24;;;;;;;;;;;;;;;;;;5076743;28;20451;-79
2022/02/27 10:26:51;;;;;;;;;;;;;;;;;;5079699;28;19917;-79
2022/02/27 10:29:23;;;;;;;;;;;;;;;;;;5081099;28;20394;-79
2022/02/27 10:31:50;;;;;;;;;;;;;;;;;;5079387;28;20278;-76
2022/02/27 10:34:17;;;;;;;;;;;;;;;;;;5078500;28;20314;-80
2022/02/27 10:36:51;;;;;;;;;;;;;;;;;;5077217;28;20373;-76
2022/02/27 10:39:35;;;;;;;;;;;;;;;;;;5078609;28;19917;-80
2022/02/27 10:42:12;;;;;;;;;;;;;;;;;;5081218;28;20023;-81
2022/02/27 10:44:42;;;;;;;;;;;;;;;;;;5081360;28;19923;-80
2022/02/27 10:47:11;;;;;;;;;;;;;;;;;;5081951;28;19917;-78
2022/02/27 10:49:37;;;;;;;;;;;;;;;;;;5079504;28;20350;-78
2022/02/27 10:52:18;;;;;;;;;;;;;;;;;;5080068;28;19952;-79
2022/02/27 10:54:45;;;;;;;;;;;;;;;;;;5080982;28;19923;-79
2022/02/27 10:57:11;;;;;;;;;;;;;;;;;;5080694;28;19917;-79
2022/02/27 10:59:38;;;;;;;;;;;;;;;;;;5080227;28;19917;-79
2022/02/27 11:02:04;;;;;;;;;;;;;;;;;;5077901;28;19974;-78
2022/02/27 11:04:29;;;;;;;;;;;;;;;;;;5081515;28;20336;-79
2022/02/27 11:06:55;;;;;;;;;;;;;;;;;;5080606;28;19924;-78
2022/02/27 11:09:20;;;;;;;;;;;;;;;;;;5081725;28;19923;-79
2022/02/27 11:11:46;;;;;;;;;;;;;;;;;;5080971;28;19923;-78
2022/02/27 11:14:11;;;;;;;;;;;;;;;;;;5084622;28;19920;-78
2022/02/27 11:16:36;;;;;;;;;;;;;;;;;;5087094;28;20305;-79
2022/02/27 11:19:02;;;;;;;;;;;;;;;;;;5079801;28;19946;-78
2022/02/27 11:21:27;;;;;;;;;;;;;;;;;;5078395;28;19959;-79
2022/02/27 11:23:52;;;;;;;;;;;;;;;;;;5080711;28;19916;-78
2022/02/27 11:26:18;;;;;;;;;;;;;;;;;;5078861;28;20326;-79
2022/02/27 11:28:44;;;;;;;;;;;;;;;;;;5081318;28;19916;-79
2022/02/27 11:31:12;;;;;;;;;;;;;;;;;;5079417;28;19962;-80
2022/02/27 11:33:37;;;;;;;;;;;;;;;;;;5078541;28;19917;-78
2022/02/27 11:36:17;;;;;;;;;;;;;;;;;;5078302;28;19922;-79
2022/02/27 11:38:43;;;;;;;;;;;;;;;;;;5078333;28;19924;-77
2022/02/27 11:41:16;;;;;;;;;;;;;;;;;;5078932;28;19974;-78
2022/02/27 11:43:50;;;;;;;;;;;;;;;;;;5083801;28;19916;-79
2022/02/27 11:46:17;;;;;;;;;;;;;;;;;;5099517;28;19916;-79
2022/02/27 11:48:56;;;;;;;;;;;;;;;;;;5099682;28;20312;-78
2022/02/27 11:51:36;;;;;;;;;;;;;;;;;;5098966;28;20037;-79
2022/02/27 11:54:05;;;;;;;;;;;;;;;;;;5098846;28;19920;-78
2022/02/27 11:56:30;;;;;;;;;;;;;;;;;;5098200;28;19930;-79
2022/02/27 11:58:55;;;;;;;;;;;;;;;;;;5098498;28;19916;-78
2022/02/27 12:01:37;;;;;;;;;;;;;;;;;;5097168;28;20011;-78
2022/02/27 12:04:21;;;;;;;;;;;;;;;;;;5097959;28;20006;-79
2022/02/27 12:06:58;;;;;;;;;;;;;;;;;;5097463;28;20298;-78
2022/02/27 12:09:24;;;;;;;;;;;;;;;;;;5097496;28;19981;-78
2022/02/27 12:11:49;;;;;;;;;;;;;;;;;;5098464;28;19916;-79
2022/02/27 12:14:14;;;;;;;;;;;;;;;;;;5097923;28;19922;-78
2022/02/27 12:16:42;;;;;;;;;;;;;;;;;;5096749;28;19916;-79
2022/02/27 12:19:21;;;;;;;;;;;;;;;;;;5099443;28;19960;-80
2022/02/27 12:21:49;;;;;;;;;;;;;;;;;;5099359;28;19920;-81
2022/02/27 12:24:30;;;;;;;;;;;;;;;;;;5101880;28;19915;-80
2022/02/27 12:26:57;;;;;;;;;;;;;;;;;;5100935;28;20327;-80
2022/02/27 12:29:23;;;;;;;;;;;;;;;;;;5099594;28;20401;-79
2022/02/27 12:31:49;;;;;;;;;;;;;;;;;;5098422;28;20304;-79
2022/02/27 12:34:18;;;;;;;;;;;;;;;;;;5098920;28;19920;-79
2022/02/27 12:36:47;;;;;;;;;;;;;;;;;;5098860;28;19920;-79
2022/02/27 12:39:14;;;;;;;;;;;;;;;;;;5103036;28;19920;-81
2022/02/27 12:41:50;;;;;;;;;;;;;;;;;;5101165;28;19927;-79
2022/02/27 12:44:35;;;;;;;;;;;;;;;;;;5099280;28;19916;-79
2022/02/27 12:47:01;;;;;;;;;;;;;;;;;;5100817;28;19920;-79
2022/02/27 12:52:12;;;;;;;;;;;;;;;;;;5101549;28;19928;-79
2022/02/27 12:54:37;;;;;;;;;;;;;;;;;;5101069;28;19916;-78
2022/02/27 12:57:04;;;;;;;;;;;;;;;;;;5101664;28;20340;-79
2022/02/27 12:59:31;;;;;;;;;;;;;;;;;;5102058;28;19923;-80
2022/02/27 13:01:57;;;;;;;;;;;;;;;;;;5102044;28;20301;-79
2022/02/27 13:04:27;;;;;;;;;;;;;;;;;;5099575;28;19923;-79
2022/02/27 13:06:58;;;;;;;;;;;;;;;;;;5101141;28;20421;-80
2022/02/27 13:09:26;;;;;;;;;;;;;;;;;;5100811;28;20018;-80
2022/02/27 13:11:53;;;;;;;;;;;;;;;;;;5101209;28;19923;-81
2022/02/27 13:14:20;;;;;;;;;;;;;;;;;;5101981;28;19934;-82
2022/02/27 13:16:49;;;;;;;;;;;;;;;;;;5104721;28;19916;-81
2022/02/27 13:19:27;;;;;;;;;;;;;;;;;;5101551;28;20019;-83
2022/02/27 13:21:52;;;;;;;;;;;;;;;;;;5100524;28;19931;-82
2022/02/27 13:24:29;;;;;;;;;;;;;;;;;;5101309;28;19916;-83
2022/02/27 13:26:54;;;;;;;;;;;;;;;;;;5102089;28;19916;-83
2022/02/27 13:29:19;;;;;;;;;;;;;;;;;;5101123;28;19923;-80
2022/02/27 13:31:48;;;;;;;;;;;;;;;;;;5101394;28;19916;-80
2022/02/27 13:34:14;;;;;;;;;;;;;;;;;;5100798;28;19985;-79
2022/02/27 13:36:40;;;;;;;;;;;;;;;;;;5103040;28;19980;-83
2022/02/27 13:39:06;;;;;;;;;;;;;;;;;;5102986;28;19958;-80
2022/02/27 13:41:33;;;;;;;;;;;;;;;;;;5100646;28;19969;-79
2022/02/27 13:43:59;;;;;;;;;;;;;;;;;;5102225;28;19916;-80
2022/02/27 13:46:24;;;;;;;;;;;;;;;;;;5100131;28;20010;-80
2022/02/27 13:48:50;;;;;;;;;;;;;;;;;;5104724;28;19923;-82
2022/02/27 13:51:25;;;;;;;;;;;;;;;;;;5102571;28;20637;-84
2022/02/27 13:53:50;;;;;;;;;;;;;;;;;;5099485;28;19985;-80
2022/02/27 13:56:16;;;;;;;;;;;;;;;;;;5100272;28;20381;-80
2022/02/27 13:58:41;;;;;;;;;;;;;;;;;;5099312;28;19923;-81
2022/02/27 14:01:13;;;;;;;;;;;;;;;;;;5099038;28;20346;-80
2022/02/27 14:03:39;;;;;;;;;;;;;;;;;;5099454;28;19962;-81
2022/02/27 14:06:05;;;;;;;;;;;;;;;;;;5098659;28;19922;-81
2022/02/27 14:08:31;;;;;;;;;;;;;;;;;;5098387;28;20010;-81
2022/02/27 14:11:03;;;;;;;;;;;;;;;;;;5100151;28;19994;-83
2022/02/27 14:13:28;;;;;;;;;;;;;;;;;;5100151;28;19916;-82
2022/02/27 14:16:01;;;;;;;;;;;;;;;;;;5092581;28;19999;-81
2022/02/27 14:18:26;;;;;;;;;;;;;;;;;;5083165;28;19916;-82
2022/02/27 14:20:53;;;;;;;;;;;;;;;;;;5081410;28;20488;-81
2022/02/27 14:23:25;;;;;;;;;;;;;;;;;;5078826;28;20298;-81
2022/02/27 14:25:51;;;;;;;;;;;;;;;;;;5081290;28;19920;-81
2022/02/27 14:28:17;;;;;;;;;;;;;;;;;;5118724;28;20376;-81
2022/02/27 14:30:42;;;;;;;;;;;;;;;;;;5117713;28;19923;-80
2022/02/27 14:33:09;;;;;;;;;;;;;;;;;;5118174;28;20381;-82
2022/02/27 14:35:35;;;;;;;;;;;;;;;;;;5120624;28;19923;-81
2022/02/27 14:38:01;;;;;;;;;;;;;;;;;;5119642;28;19923;-80
2022/02/27 14:40:26;;;;;;;;;;;;;;;;;;5118685;28;19916;-80
2022/02/27 14:42:53;;;;;;;;;;;;;;;;;;5117287;28;19919;-78
2022/02/27 14:45:18;;;;;;;;;;;;;;;;;;5107591;28;19916;-83
2022/02/27 14:47:43;;;;;;;;;;;;;;;;;;5097551;28;20439;-84
2022/02/27 14:50:09;;;;;;;;;;;;;;;;;;5094312;28;20290;-77
2022/02/27 14:52:34;;;;;;;;;;;;;;;;;;5093570;28;19920;-78
2022/02/27 14:55:04;;;;;;;;;;;;;;;;;;5094670;28;19916;-80
2022/02/27 14:57:36;;;;;;;;;;;;;;;;;;5099420;28;19916;-79
2022/02/27 15:00:14;;;;;;;;;;;;;;;;;;5099009;28;19965;-80
2022/02/27 15:02:39;;;;;;;;;;;;;;;;;;5095647;28;19920;-83
2022/02/27 15:05:09;;;;;;;;;;;;;;;;;;5093918;28;20266;-85
2022/02/27 15:07:34;;;;;;;;;;;;;;;;;;5092720;28;19924;-82
2022/02/27 15:10:00;;;;;;;;;;;;;;;;;;5097357;28;20110;-82
2022/02/27 15:12:25;;;;;;;;;;;;;;;;;;5090548;28;19917;-81
2022/02/27 15:14:50;;;;;;;;;;;;;;;;;;5102355;28;20004;-83
2022/02/27 15:17:16;;;;;;;;;;;;;;;;;;5101388;28;19916;-79
2022/02/27 15:19:41;;;;;;;;;;;;;;;;;;5101955;28;19916;-86
2022/02/27 15:22:07;;;;;;;;;;;;;;;;;;5084121;28;20339;-79
2022/02/27 15:24:32;;;;;;;;;;;;;;;;;;5098450;28;20433;-79
2022/02/27 15:26:58;;;;;;;;;;;;;;;;;;5099587;28;19916;-79
2022/02/27 15:29:23;;;;;;;;;;;;;;;;;;5097876;28;20386;-81
2022/02/27 15:31:52;;;;;;;;;;;;;;;;;;5080206;28;20370;-79
2022/02/27 15:34:18;;;;;;;;;;;;;;;;;;5078758;28;20294;-81
2022/02/27 15:36:43;;;;;;;;;;;;;;;;;;5086828;28;19923;-79
2022/02/27 15:39:09;;;;;;;;;;;;;;;;;;5083264;28;19917;-79
2022/02/27 15:41:35;;;;;;;;;;;;;;;;;;5092509;28;19921;-82
2022/02/27 15:44:00;;;;;;;;;;;;;;;;;;5100586;28;19916;-80
2022/02/27 15:46:25;;;;;;;;;;;;;;;;;;5091535;28;19916;-81
2022/02/27 15:48:51;;;;;;;;;;;;;;;;;;5096045;28;19916;-80
2022/02/27 15:51:18;;;;;;;;;;;;;;;;;;5101368;28;19962;-80
2022/02/27 15:53:43;;;;;;;;;;;;;;;;;;5101660;28;19927;-80
2022/02/27 15:56:09;;;;;;;;;;;;;;;;;;5085655;28;19916;-79
2022/02/27 15:58:35;;;;;;;;;;;;;;;;;;5086158;28;19916;-81
2022/02/27 16:01:00;;;;;;;;;;;;;;;;;;5093518;28;19947;-79
2022/02/27 16:03:26;;;;;;;;;;;;;;;;;;5099583;28;20007;-79
2022/02/27 16:05:52;;;;;;;;;;;;;;;;;;5088199;28;19959;-80
2022/02/27 16:08:17;;;;;;;;;;;;;;;;;;5088180;28;19917;-79
2022/02/27 16:10:42;;;;;;;;;;;;;;;;;;5088776;28;19916;-81
2022/02/27 16:13:10;;;;;;;;;;;;;;;;;;5095877;28;19920;-79
2022/02/27 16:15:36;;;;;;;;;;;;;;;;;;5111512;28;20312;-79
2022/02/27 16:18:02;;;;;;;;;;;;;;;;;;5109204;28;19955;-79
2022/02/27 16:20:27;;;;;;;;;;;;;;;;;;5107995;28;19937;-80
2022/02/27 16:22:52;;;;;;;;;;;;;;;;;;5107745;28;20382;-80
2022/02/27 16:25:17;;;;;;;;;;;;;;;;;;5107540;28;19923;-80
2022/02/27 16:27:43;;;;;;;;;;;;;;;;;;5104711;28;19996;-82
2022/02/27 16:30:08;;;;;;;;;;;;;;;;;;5099623;28;19943;-78
2022/02/27 16:32:34;;;;;;;;;;;;;;;;;;5097663;28;19946;-78
2022/02/27 16:34:59;;;;;;;;;;;;;;;;;;5098526;28;19920;-78
2022/02/27 16:37:27;;;;;;;;;;;;;;;;;;5097229;28;19930;-78
2022/02/27 16:39:53;;;;;;;;;;;;;;;;;;5097004;28;20331;-78
2022/02/27 16:42:19;;;;;;;;;;;;;;;;;;5097401;28;20015;-78
2022/02/27 16:44:44;;;;;;;;;;;;;;;;;;5097290;28;20316;-78